createdAt,value
2016-03-14T00:00:57.604Z,0
2016-03-14T00:01:57.607Z,0
2016-03-14T00:02:57.626Z,0
2016-03-14T00:03:57.675Z,0
2016-03-14T00:04:57.631Z,0
2016-03-14T00:05:57.650Z,0
2016-03-14T00:06:57.667Z,0
2016-03-14T00:07:57.670Z,0
2016-03-14T00:08:57.705Z,0
2016-03-14T00:09:57.708Z,0
2016-03-14T00:10:57.725Z,0
2016-03-14T00:11:57.713Z,0
2016-03-14T00:12:57.747Z,0
2016-03-14T00:13:57.749Z,0
2016-03-14T00:14:57.783Z,0
2016-03-14T00:15:57.786Z,0
2016-03-14T00:16:57.788Z,0
2016-03-14T00:17:57.808Z,0
2016-03-14T00:18:57.825Z,0
2016-03-14T00:19:57.844Z,0
2016-03-14T00:20:57.846Z,0
2016-03-14T00:21:57.833Z,0
2016-03-14T00:22:57.882Z,0
2016-03-14T00:23:57.870Z,0
2016-03-14T00:24:57.888Z,0
2016-03-14T00:25:57.906Z,0
2016-03-14T00:26:57.893Z,0
2016-03-14T00:27:57.943Z,0
2016-03-14T00:28:57.930Z,0
2016-03-14T00:29:57.964Z,0
2016-03-14T00:30:57.951Z,0
2016-03-14T00:31:57.970Z,0
2016-03-14T00:32:57.987Z,0
2016-03-14T00:33:58.006Z,0
2016-03-14T00:34:58.025Z,0
2016-03-14T00:35:58.027Z,0
2016-03-14T00:36:58.046Z,0
2016-03-14T00:37:58.048Z,0
2016-03-14T00:38:58.051Z,0
2016-03-14T00:39:58.069Z,0
2016-03-14T00:40:58.103Z,0
2016-03-14T00:41:58.105Z,0
2016-03-14T00:42:58.108Z,0
2016-03-14T00:43:58.127Z,0
2016-03-14T00:44:58.145Z,0
2016-03-14T00:45:58.147Z,0
2016-03-14T00:46:58.166Z,0
2016-03-14T00:47:58.169Z,0
2016-03-14T00:48:58.171Z,0
2016-03-14T00:49:58.190Z,0
2016-03-14T00:50:58.208Z,0
2016-03-14T00:51:58.241Z,0
2016-03-14T00:52:58.213Z,0
2016-03-14T00:53:58.232Z,0
2016-03-14T00:54:58.406Z,0
2016-03-14T00:55:58.252Z,0
2016-03-14T00:56:58.271Z,0
2016-03-14T00:57:58.274Z,0
2016-03-14T00:58:58.395Z,0
2016-03-14T00:59:58.155Z,0
2016-03-14T01:00:58.361Z,0
2016-03-14T01:01:59.434Z,0
2016-03-14T01:02:58.375Z,0
2016-03-14T01:03:58.347Z,0
2016-03-14T01:04:58.349Z,0
2016-03-14T01:05:58.399Z,0
2016-03-14T01:06:58.402Z,0
2016-03-14T01:07:58.419Z,0
2016-03-14T01:08:58.408Z,0
2016-03-14T01:09:58.222Z,0
2016-03-14T01:10:58.428Z,0
2016-03-14T01:11:58.446Z,0
2016-03-14T01:12:58.464Z,0
2016-03-14T01:13:58.499Z,0
2016-03-14T01:14:58.501Z,0
2016-03-14T01:15:58.488Z,0
2016-03-14T01:16:58.506Z,0
2016-03-14T01:17:58.368Z,0
2016-03-14T01:18:58.606Z,0
2016-03-14T01:19:58.577Z,0
2016-03-14T01:20:58.564Z,0
2016-03-14T01:21:58.551Z,0
2016-03-14T01:22:58.679Z,0
2016-03-14T01:23:58.618Z,0
2016-03-14T01:24:58.621Z,0
2016-03-14T01:25:58.593Z,0
2016-03-14T01:26:58.626Z,0
2016-03-14T01:27:58.645Z,0
2016-03-14T01:28:58.664Z,0
2016-03-14T01:29:58.651Z,0
2016-03-14T01:30:58.685Z,0
2016-03-14T01:31:58.672Z,0
2016-03-14T01:32:58.706Z,0
2016-03-14T01:33:58.708Z,0
2016-03-14T01:34:58.742Z,0
2016-03-14T01:35:58.714Z,0
2016-03-14T01:36:59.450Z,0
2016-03-14T01:37:58.750Z,0
2016-03-14T01:38:58.784Z,0
2016-03-14T01:39:58.787Z,0
2016-03-14T01:40:58.789Z,0
2016-03-14T01:41:58.792Z,0
2016-03-14T01:42:58.795Z,0
2016-03-14T01:43:58.813Z,0
2016-03-14T01:44:58.816Z,0
2016-03-14T01:45:58.850Z,0
2016-03-14T01:46:58.837Z,0
2016-03-14T01:47:58.871Z,0
2016-03-14T01:48:58.874Z,0
2016-03-14T01:49:58.892Z,0
2016-03-14T01:50:58.895Z,0
2016-03-14T01:51:58.913Z,0
2016-03-14T01:52:58.915Z,0
2016-03-14T01:53:58.965Z,0
2016-03-14T01:54:58.967Z,0
2016-03-14T01:55:58.955Z,0
2016-03-14T01:56:58.973Z,0
2016-03-14T01:57:58.976Z,0
2016-03-14T01:58:58.979Z,0
2016-03-14T01:59:59.028Z,0
2016-03-14T02:00:59.015Z,0
2016-03-14T02:01:59.050Z,0
2016-03-14T02:02:59.020Z,0
2016-03-14T02:03:59.070Z,0
2016-03-14T02:04:59.042Z,0
2016-03-14T02:05:59.107Z,0
2016-03-14T02:06:59.078Z,0
2016-03-14T02:07:59.112Z,0
2016-03-14T02:08:59.084Z,0
2016-03-14T02:09:59.227Z,0
2016-03-14T02:10:59.120Z,0
2016-03-14T02:11:59.155Z,0
2016-03-14T02:12:59.188Z,0
2016-03-14T02:13:59.175Z,0
2016-03-14T02:14:59.163Z,0
2016-03-14T02:15:59.196Z,0
2016-03-14T02:16:59.199Z,0
2016-03-14T02:17:59.233Z,0
2016-03-14T02:18:59.220Z,0
2016-03-14T02:19:59.238Z,0
2016-03-14T02:20:59.226Z,0
2016-03-14T02:21:59.274Z,0
2016-03-14T02:22:59.262Z,0
2016-03-14T02:23:59.279Z,0
2016-03-14T02:24:59.283Z,0
2016-03-14T02:25:59.317Z,0
2016-03-14T02:26:59.320Z,0
2016-03-14T02:27:59.338Z,0
2016-03-14T02:28:59.325Z,0
2016-03-14T02:29:59.375Z,0
2016-03-14T02:30:59.362Z,0
2016-03-14T02:31:59.364Z,0
2016-03-14T02:32:59.414Z,0
2016-03-14T02:33:59.400Z,0
2016-03-14T02:34:59.420Z,0
2016-03-14T02:35:59.406Z,0
2016-03-14T02:36:59.425Z,0
2016-03-14T02:37:59.428Z,0
2016-03-14T02:38:59.445Z,0
2016-03-14T02:39:59.480Z,0
2016-03-14T02:40:59.451Z,0
2016-03-14T02:41:59.485Z,0
2016-03-14T02:42:59.487Z,0
2016-03-14T02:43:59.506Z,0
2016-03-14T02:44:59.493Z,0
2016-03-14T02:45:59.527Z,0
2016-03-14T02:46:59.530Z,0
2016-03-14T02:47:59.563Z,0
2016-03-14T02:48:59.543Z,0
2016-03-14T02:49:59.565Z,0
2016-03-14T02:50:59.554Z,0
2016-03-14T02:51:59.544Z,0
2016-03-14T02:52:59.550Z,0
2016-03-14T02:53:59.544Z,0
2016-03-14T02:54:59.575Z,0
2016-03-14T02:55:59.400Z,0
2016-03-14T02:56:59.571Z,0
2016-03-14T02:57:59.584Z,0
2016-03-14T02:58:59.599Z,0
2016-03-14T02:59:59.444Z,0
2016-03-14T03:00:59.586Z,0
2016-03-14T03:01:59.634Z,0
2016-03-14T03:02:59.463Z,0
2016-03-14T03:03:59.653Z,0
2016-03-14T03:04:59.639Z,0
2016-03-14T03:05:59.671Z,0
2016-03-14T03:06:59.705Z,0
2016-03-14T03:07:59.676Z,0
2016-03-14T03:08:59.694Z,0
2016-03-14T03:09:59.713Z,0
2016-03-14T03:10:59.730Z,0
2016-03-14T03:11:59.718Z,0
2016-03-14T03:12:59.720Z,0
2016-03-14T03:13:59.755Z,0
2016-03-14T03:14:59.757Z,0
2016-03-14T03:15:59.791Z,0
2016-03-14T03:16:59.778Z,0
2016-03-14T03:17:59.907Z,0
2016-03-14T03:18:59.877Z,0
2016-03-14T03:19:59.912Z,0
2016-03-14T03:20:59.898Z,0
2016-03-14T03:21:59.870Z,0
2016-03-14T03:22:59.856Z,0
2016-03-14T03:23:59.859Z,0
2016-03-14T03:24:59.878Z,0
2016-03-14T03:25:59.865Z,0
2016-03-14T03:26:59.898Z,0
2016-03-14T03:27:59.886Z,0
2016-03-14T03:28:59.919Z,0
2016-03-14T03:29:59.922Z,0
2016-03-14T03:30:59.941Z,0
2016-03-14T03:31:59.928Z,0
2016-03-14T03:32:59.947Z,0
2016-03-14T03:33:59.964Z,0
2016-03-14T03:34:59.998Z,0
2016-03-14T03:35:59.986Z,0
2016-03-14T03:37:00.004Z,0
2016-03-14T03:37:59.991Z,0
2016-03-14T03:39:00.025Z,0
2016-03-14T03:40:00.027Z,0
2016-03-14T03:41:00.046Z,0
2016-03-14T03:42:00.049Z,0
2016-03-14T03:43:00.067Z,0
2016-03-14T03:44:00.085Z,0
2016-03-14T03:45:00.088Z,0
2016-03-14T03:46:00.121Z,0
2016-03-14T03:47:00.109Z,0
2016-03-14T03:48:00.111Z,0
2016-03-14T03:49:00.130Z,0
2016-03-14T03:50:00.148Z,0
2016-03-14T03:51:00.151Z,0
2016-03-14T03:52:00.168Z,0
2016-03-14T03:53:00.172Z,0
2016-03-14T03:54:00.190Z,0
2016-03-14T03:55:00.193Z,0
2016-03-14T03:56:00.195Z,0
2016-03-14T03:57:00.214Z,0
2016-03-14T03:58:00.231Z,0
2016-03-14T03:59:00.266Z,0
2016-03-14T04:00:00.253Z,0
2016-03-14T04:01:00.303Z,0
2016-03-14T04:02:00.274Z,0
2016-03-14T04:03:00.308Z,0
2016-03-14T04:04:00.310Z,0
2016-03-14T04:05:00.313Z,0
2016-03-14T04:06:00.316Z,0
2016-03-14T04:07:00.319Z,0
2016-03-14T04:08:00.368Z,0
2016-03-14T04:09:00.339Z,0
2016-03-14T04:10:00.374Z,0
2016-03-14T04:11:00.392Z,0
2016-03-14T04:12:00.442Z,0
2016-03-14T04:13:00.397Z,0
2016-03-14T04:14:00.431Z,0
2016-03-14T04:15:00.434Z,0
2016-03-14T04:16:00.437Z,0
2016-03-14T04:17:00.440Z,0
2016-03-14T04:18:00.443Z,0
2016-03-14T04:19:00.492Z,0
2016-03-14T04:20:00.462Z,0
2016-03-14T04:21:00.496Z,0
2016-03-14T04:22:00.499Z,0
2016-03-14T04:23:00.534Z,0
2016-03-14T04:24:00.521Z,0
2016-03-14T04:25:00.540Z,0
2016-03-14T04:26:00.542Z,0
2016-03-14T04:27:00.545Z,0
2016-03-14T04:28:00.563Z,0
2016-03-14T04:29:00.582Z,0
2016-03-14T04:30:00.584Z,0
2016-03-14T04:31:00.603Z,0
2016-03-14T04:32:00.589Z,0
2016-03-14T04:33:00.623Z,0
2016-03-14T04:34:00.642Z,0
2016-03-14T04:35:00.645Z,0
2016-03-14T04:36:00.647Z,0
2016-03-14T04:37:00.681Z,0
2016-03-14T04:38:00.667Z,0
2016-03-14T04:39:00.702Z,0
2016-03-14T04:40:00.705Z,0
2016-03-14T04:41:00.708Z,0
2016-03-14T04:42:00.725Z,0
2016-03-14T04:43:00.728Z,0
2016-03-14T04:44:00.746Z,0
2016-03-14T04:45:00.750Z,0
2016-03-14T04:46:00.768Z,0
2016-03-14T04:47:00.771Z,0
2016-03-14T04:48:00.788Z,0
2016-03-14T04:49:00.776Z,0
2016-03-14T04:50:00.824Z,0
2016-03-14T04:51:00.827Z,0
2016-03-14T04:52:00.846Z,0
2016-03-14T04:53:00.849Z,0
2016-03-14T04:54:00.851Z,0
2016-03-14T04:55:00.885Z,0
2016-03-14T04:56:00.888Z,0
2016-03-14T04:57:00.875Z,0
2016-03-14T04:58:00.893Z,0
2016-03-14T04:59:00.912Z,0
2016-03-14T05:00:00.945Z,0
2016-03-14T05:01:00.933Z,0
2016-03-14T05:02:00.967Z,0
2016-03-14T05:03:00.970Z,0
2016-03-14T05:04:00.988Z,0
2016-03-14T05:05:00.975Z,0
2016-03-14T05:06:01.009Z,0
2016-03-14T05:07:01.011Z,0
2016-03-14T05:08:01.014Z,0
2016-03-14T05:09:01.017Z,0
2016-03-14T05:10:01.020Z,4
2016-03-14T05:11:01.022Z,4
2016-03-14T05:12:01.056Z,0
2016-03-14T05:13:01.058Z,0
2016-03-14T05:14:01.061Z,4
2016-03-14T05:15:01.080Z,0
2016-03-14T05:16:01.083Z,4
2016-03-14T05:17:01.132Z,4
2016-03-14T05:18:01.119Z,8
2016-03-14T05:19:01.152Z,8
2016-03-14T05:20:01.141Z,8
2016-03-14T05:21:01.158Z,8
2016-03-14T05:22:01.161Z,12
2016-03-14T05:23:01.179Z,12
2016-03-14T05:24:01.182Z,16
2016-03-14T05:25:01.184Z,20
2016-03-14T05:26:01.203Z,24
2016-03-14T05:27:01.221Z,28
2016-03-14T05:28:01.256Z,32
2016-03-14T05:29:01.258Z,40
2016-03-14T05:30:01.261Z,44
2016-03-14T05:31:01.247Z,52
2016-03-14T05:32:01.266Z,64
2016-03-14T05:33:01.269Z,76
2016-03-14T05:34:01.287Z,84
2016-03-14T05:35:01.289Z,100
2016-03-14T05:36:01.308Z,112
2016-03-14T05:37:01.326Z,128
2016-03-14T05:38:01.329Z,144
2016-03-14T05:39:01.348Z,160
2016-03-14T05:40:01.381Z,180
2016-03-14T05:41:01.353Z,200
2016-03-14T05:42:01.371Z,220
2016-03-14T05:43:01.374Z,240
2016-03-14T05:44:01.408Z,264
2016-03-14T05:45:01.395Z,292
2016-03-14T05:46:01.429Z,316
2016-03-14T05:47:01.432Z,344
2016-03-14T05:48:01.434Z,372
2016-03-14T05:49:01.452Z,404
2016-03-14T05:50:01.455Z,436
2016-03-14T05:51:01.488Z,472
2016-03-14T05:52:01.476Z,512
2016-03-14T05:53:01.510Z,548
2016-03-14T05:54:01.513Z,588
2016-03-14T05:55:01.546Z,624
2016-03-14T05:56:01.518Z,664
2016-03-14T05:57:01.552Z,704
2016-03-14T05:58:01.539Z,748
2016-03-14T05:59:01.557Z,792
2016-03-14T06:00:01.575Z,832
2016-03-14T06:01:01.594Z,880
2016-03-14T06:02:01.628Z,928
2016-03-14T06:03:01.600Z,980
2016-03-14T06:04:01.602Z,1040
2016-03-14T06:05:01.620Z,1096
2016-03-14T06:06:01.627Z,1152
2016-03-14T06:07:01.647Z,1200
2016-03-14T06:08:01.665Z,1252
2016-03-14T06:09:01.667Z,1304
2016-03-14T06:10:01.686Z,1348
2016-03-14T06:11:01.704Z,1392
2016-03-14T06:12:01.691Z,1436
2016-03-14T06:13:01.709Z,1488
2016-03-14T06:14:01.728Z,1532
2016-03-14T06:15:01.730Z,1572
2016-03-14T06:16:01.749Z,1612
2016-03-14T06:17:01.766Z,1656
2016-03-14T06:18:01.754Z,1700
2016-03-14T06:19:01.787Z,1736
2016-03-14T06:20:01.775Z,1772
2016-03-14T06:21:01.809Z,1812
2016-03-14T06:22:01.812Z,1856
2016-03-14T06:23:01.829Z,1908
2016-03-14T06:24:01.817Z,1960
2016-03-14T06:25:01.820Z,2000
2016-03-14T06:26:01.854Z,2040
2016-03-14T06:27:01.872Z,2088
2016-03-14T06:28:01.890Z,2148
2016-03-14T06:29:01.877Z,2200
2016-03-14T06:30:01.911Z,2244
2016-03-14T06:31:01.914Z,2296
2016-03-14T06:32:01.917Z,2344
2016-03-14T06:33:01.935Z,2388
2016-03-14T06:34:01.953Z,2440
2016-03-14T06:35:01.972Z,2488
2016-03-14T06:36:01.958Z,2536
2016-03-14T06:37:01.992Z,2568
2016-03-14T06:38:01.995Z,2616
2016-03-14T06:39:01.998Z,2668
2016-03-14T06:40:02.000Z,2720
2016-03-14T06:41:02.019Z,2776
2016-03-14T06:42:02.037Z,2836
2016-03-14T06:43:02.041Z,2892
2016-03-14T06:44:02.043Z,2928
2016-03-14T06:45:02.077Z,2956
2016-03-14T06:46:02.063Z,3004
2016-03-14T06:47:02.082Z,3036
2016-03-14T06:48:02.099Z,3084
2016-03-14T06:49:02.134Z,3124
2016-03-14T06:50:02.121Z,3164
2016-03-14T06:51:02.155Z,3196
2016-03-14T06:52:02.157Z,3232
2016-03-14T06:53:02.192Z,3272
2016-03-14T06:54:02.178Z,3336
2016-03-14T06:55:02.165Z,3392
2016-03-14T06:56:02.231Z,3436
2016-03-14T06:57:02.187Z,3460
2016-03-14T06:58:02.205Z,3544
2016-03-14T06:59:02.223Z,3604
2016-03-14T07:00:02.242Z,3636
2016-03-14T07:01:02.104Z,3640
2016-03-14T07:02:02.295Z,3680
2016-03-14T07:03:02.297Z,3704
2016-03-14T07:04:02.284Z,3744
2016-03-14T07:05:02.130Z,3772
2016-03-14T07:06:02.305Z,3792
2016-03-14T07:07:02.339Z,3860
2016-03-14T07:08:02.311Z,3900
2016-03-14T07:09:02.345Z,3948
2016-03-14T07:10:02.363Z,3980
2016-03-14T07:11:02.397Z,4012
2016-03-14T07:12:02.368Z,4060
2016-03-14T07:13:02.386Z,4076
2016-03-14T07:14:02.404Z,4096
2016-03-14T07:15:02.408Z,4128
2016-03-14T07:16:02.457Z,4124
2016-03-14T07:17:02.444Z,4192
2016-03-14T07:18:02.462Z,4244
2016-03-14T07:19:02.466Z,4296
2016-03-14T07:20:02.499Z,4296
2016-03-14T07:21:02.471Z,4408
2016-03-14T07:22:02.535Z,4340
2016-03-14T07:23:02.507Z,4384
2016-03-14T07:24:02.540Z,4412
2016-03-14T07:25:02.544Z,4480
2016-03-14T07:26:02.577Z,4536
2016-03-14T07:27:02.565Z,4576
2016-03-14T07:28:02.567Z,4584
2016-03-14T07:29:02.585Z,4592
2016-03-14T07:30:02.603Z,4660
2016-03-14T07:31:02.606Z,4676
2016-03-14T07:32:02.625Z,4676
2016-03-14T07:33:02.628Z,4684
2016-03-14T07:34:02.631Z,4732
2016-03-14T07:35:02.648Z,4808
2016-03-14T07:36:02.667Z,4852
2016-03-14T07:37:02.670Z,4892
2016-03-14T07:38:02.704Z,4940
2016-03-14T07:39:02.706Z,4980
2016-03-14T07:40:02.724Z,5032
2016-03-14T07:41:02.602Z,5100
2016-03-14T07:42:02.745Z,5048
2016-03-14T07:43:02.764Z,5128
2016-03-14T07:44:02.767Z,5148
2016-03-14T07:45:02.769Z,5168
2016-03-14T07:46:02.819Z,5200
2016-03-14T07:47:02.805Z,5268
2016-03-14T07:48:02.824Z,5316
2016-03-14T07:49:02.811Z,5352
2016-03-14T07:50:02.861Z,5372
2016-03-14T07:51:02.863Z,5372
2016-03-14T07:52:02.851Z,5336
2016-03-14T07:53:02.869Z,5380
2016-03-14T07:54:02.888Z,5432
2016-03-14T07:55:02.921Z,5476
2016-03-14T07:56:02.955Z,5472
2016-03-14T07:57:02.942Z,5600
2016-03-14T07:58:02.929Z,5552
2016-03-14T07:59:02.978Z,5540
2016-03-14T08:00:02.966Z,5536
2016-03-14T08:01:02.968Z,5508
2016-03-14T08:02:02.987Z,5504
2016-03-14T08:03:03.005Z,5584
2016-03-14T08:04:03.023Z,5560
2016-03-14T08:05:03.026Z,5640
2016-03-14T08:06:03.057Z,5660
2016-03-14T08:07:03.059Z,5672
2016-03-14T08:08:03.078Z,5720
2016-03-14T08:09:03.080Z,5692
2016-03-14T08:10:03.100Z,5740
2016-03-14T08:11:03.133Z,5796
2016-03-14T08:12:03.120Z,5816
2016-03-14T08:13:03.122Z,5732
2016-03-14T08:14:03.157Z,5744
2016-03-14T08:15:03.159Z,5804
2016-03-14T08:16:03.208Z,5768
2016-03-14T08:17:03.258Z,5852
2016-03-14T08:18:03.214Z,5892
2016-03-14T08:19:03.263Z,5864
2016-03-14T08:20:03.298Z,5868
2016-03-14T08:21:03.237Z,5844
2016-03-14T08:22:03.240Z,5888
2016-03-14T08:23:03.337Z,5820
2016-03-14T08:24:03.277Z,5924
2016-03-14T08:25:03.279Z,5896
2016-03-14T08:26:03.298Z,5872
2016-03-14T08:27:03.317Z,5984
2016-03-14T08:28:03.320Z,5956
2016-03-14T08:29:03.337Z,5972
2016-03-14T08:30:03.340Z,5960
2016-03-14T08:31:03.358Z,6016
2016-03-14T08:32:03.376Z,6092
2016-03-14T08:33:03.395Z,6060
2016-03-14T08:34:03.414Z,6056
2016-03-14T08:35:03.416Z,6020
2016-03-14T08:36:03.434Z,6056
2016-03-14T08:37:03.437Z,6116
2016-03-14T08:38:03.471Z,6164
2016-03-14T08:39:03.489Z,6172
2016-03-14T08:40:03.477Z,6188
2016-03-14T08:41:03.355Z,6184
2016-03-14T08:42:03.514Z,6176
2016-03-14T08:43:03.531Z,6184
2016-03-14T08:44:03.534Z,6204
2016-03-14T08:45:03.553Z,6264
2016-03-14T08:46:03.539Z,6296
2016-03-14T08:47:03.574Z,6552
2016-03-14T08:48:03.591Z,6332
2016-03-14T08:49:03.610Z,6336
2016-03-14T08:50:03.613Z,6356
2016-03-14T08:51:03.632Z,6392
2016-03-14T08:52:03.649Z,6400
2016-03-14T08:53:03.652Z,6452
2016-03-14T08:54:03.655Z,6492
2016-03-14T08:55:03.688Z,6512
2016-03-14T08:56:03.707Z,6544
2016-03-14T08:57:03.694Z,6568
2016-03-14T08:58:03.712Z,6556
2016-03-14T08:59:03.731Z,6548
2016-03-14T09:00:03.765Z,6544
2016-03-14T09:01:03.752Z,6568
2016-03-14T09:02:03.770Z,6580
2016-03-14T09:03:04.101Z,6560
2016-03-14T09:04:03.791Z,6548
2016-03-14T09:05:03.809Z,6576
2016-03-14T09:06:03.828Z,6560
2016-03-14T09:07:04.253Z,6556
2016-03-14T09:08:03.848Z,6428
2016-03-14T09:09:03.851Z,6488
2016-03-14T09:10:04.447Z,6492
2016-03-14T09:11:03.903Z,6492
2016-03-14T09:12:03.906Z,6460
2016-03-14T09:13:03.924Z,6412
2016-03-14T09:14:03.927Z,6460
2016-03-14T09:15:03.961Z,6436
2016-03-14T09:16:03.964Z,6500
2016-03-14T09:17:03.982Z,6484
2016-03-14T09:18:03.985Z,6508
2016-03-14T09:19:04.002Z,6532
2016-03-14T09:20:03.991Z,6540
2016-03-14T09:21:04.024Z,6560
2016-03-14T09:22:04.058Z,6504
2016-03-14T09:23:04.045Z,6536
2016-03-14T09:24:04.063Z,6532
2016-03-14T09:25:04.112Z,6548
2016-03-14T09:26:04.085Z,6340
2016-03-14T09:27:04.103Z,6416
2016-03-14T09:28:04.121Z,6572
2016-03-14T09:29:04.123Z,6644
2016-03-14T09:30:04.157Z,6652
2016-03-14T09:31:04.160Z,6648
2016-03-14T09:32:04.178Z,6656
2016-03-14T09:33:04.182Z,6668
2016-03-14T09:34:04.215Z,6652
2016-03-14T09:35:04.062Z,6608
2016-03-14T09:36:04.236Z,6660
2016-03-14T09:37:04.255Z,6680
2016-03-14T09:38:04.242Z,6684
2016-03-14T09:39:04.276Z,6664
2016-03-14T09:40:04.278Z,6660
2016-03-14T09:41:04.312Z,6592
2016-03-14T09:42:04.300Z,6584
2016-03-14T09:43:04.318Z,6552
2016-03-14T09:44:04.336Z,6584
2016-03-14T09:45:04.370Z,6584
2016-03-14T09:46:04.389Z,6576
2016-03-14T09:47:04.375Z,6624
2016-03-14T09:48:04.378Z,6604
2016-03-14T09:49:04.412Z,6580
2016-03-14T09:50:04.446Z,6656
2016-03-14T09:51:04.433Z,6724
2016-03-14T09:52:04.451Z,6680
2016-03-14T09:53:04.470Z,6724
2016-03-14T09:54:04.472Z,6724
2016-03-14T09:55:04.522Z,6752
2016-03-14T09:56:04.509Z,7212
2016-03-14T09:57:04.527Z,6748
2016-03-14T09:58:04.545Z,6852
2016-03-14T09:59:04.548Z,6840
2016-03-14T10:00:04.567Z,6844
2016-03-14T10:01:04.788Z,6892
2016-03-14T10:02:04.604Z,7000
2016-03-14T10:03:04.621Z,6932
2016-03-14T10:04:04.640Z,6940
2016-03-14T10:05:04.643Z,6992
2016-03-14T10:06:04.504Z,7028
2016-03-14T10:07:04.684Z,7044
2016-03-14T10:08:04.691Z,7048
2016-03-14T10:09:03.929Z,7080
2016-03-14T10:10:04.697Z,7136
2016-03-14T10:11:04.716Z,7096
2016-03-14T10:12:04.733Z,7184
2016-03-14T10:13:04.752Z,7188
2016-03-14T10:14:04.771Z,7244
2016-03-14T10:15:04.758Z,7300
2016-03-14T10:16:04.791Z,7344
2016-03-14T10:17:04.825Z,7432
2016-03-14T10:18:04.812Z,7348
2016-03-14T10:19:04.830Z,7436
2016-03-14T10:20:04.833Z,7464
2016-03-14T10:21:04.898Z,7500
2016-03-14T10:22:04.886Z,7532
2016-03-14T10:23:04.904Z,7536
2016-03-14T10:24:04.891Z,7568
2016-03-14T10:25:04.909Z,7572
2016-03-14T10:26:04.943Z,7620
2016-03-14T10:27:04.962Z,7648
2016-03-14T10:28:04.995Z,7660
2016-03-14T10:29:04.968Z,7656
2016-03-14T10:30:05.001Z,7684
2016-03-14T10:31:05.004Z,7740
2016-03-14T10:32:05.037Z,7728
2016-03-14T10:33:05.056Z,7696
2016-03-14T10:34:05.059Z,7712
2016-03-14T10:35:05.062Z,7716
2016-03-14T10:36:04.330Z,7688
2016-03-14T10:37:05.082Z,7664
2016-03-14T10:38:05.116Z,7632
2016-03-14T10:39:05.119Z,7596
2016-03-14T10:40:05.137Z,7576
2016-03-14T10:41:05.155Z,7528
2016-03-14T10:42:05.174Z,7512
2016-03-14T10:43:05.177Z,7564
2016-03-14T10:44:05.195Z,7560
2016-03-14T10:45:05.213Z,7564
2016-03-14T10:46:05.216Z,8332
2016-03-14T10:47:05.235Z,7616
2016-03-14T10:48:05.268Z,7556
2016-03-14T10:49:05.271Z,7592
2016-03-14T10:50:05.305Z,7604
2016-03-14T10:51:05.291Z,7612
2016-03-14T10:52:05.326Z,7600
2016-03-14T10:53:05.375Z,7552
2016-03-14T10:54:05.331Z,7524
2016-03-14T10:55:05.365Z,7560
2016-03-14T10:56:05.367Z,7564
2016-03-14T10:57:05.387Z,7524
2016-03-14T10:58:05.389Z,7508
2016-03-14T10:59:05.423Z,7548
2016-03-14T11:00:05.440Z,7492
2016-03-14T11:01:05.429Z,7388
2016-03-14T11:02:05.510Z,7224
2016-03-14T11:03:05.543Z,7292
2016-03-14T11:04:05.531Z,7412
2016-03-14T11:05:05.565Z,7312
2016-03-14T11:06:05.505Z,7420
2016-03-14T11:07:05.523Z,7516
2016-03-14T11:08:05.557Z,7484
2016-03-14T11:09:05.576Z,7596
2016-03-14T11:10:05.562Z,7516
2016-03-14T11:11:05.596Z,7532
2016-03-14T11:12:05.583Z,7604
2016-03-14T11:13:05.601Z,7448
2016-03-14T11:14:05.620Z,7576
2016-03-14T11:15:05.654Z,7620
2016-03-14T11:16:05.704Z,7620
2016-03-14T11:17:05.691Z,7620
2016-03-14T11:18:05.694Z,7612
2016-03-14T11:19:04.961Z,7660
2016-03-14T11:20:05.761Z,7640
2016-03-14T11:21:05.748Z,7668
2016-03-14T11:22:05.770Z,7656
2016-03-14T11:23:05.756Z,7708
2016-03-14T11:24:05.774Z,7632
2016-03-14T11:25:05.793Z,7632
2016-03-14T11:26:05.843Z,7720
2016-03-14T11:27:05.814Z,7776
2016-03-14T11:28:05.848Z,7796
2016-03-14T11:29:05.866Z,7808
2016-03-14T11:30:05.885Z,7796
2016-03-14T11:31:05.887Z,8092
2016-03-14T11:32:05.906Z,7876
2016-03-14T11:33:05.924Z,7952
2016-03-14T11:34:05.958Z,7972
2016-03-14T11:35:05.946Z,7996
2016-03-14T11:36:05.963Z,8412
2016-03-14T11:37:05.982Z,7888
2016-03-14T11:38:06.000Z,7928
2016-03-14T11:39:06.003Z,7900
2016-03-14T11:40:06.037Z,7936
2016-03-14T11:41:06.054Z,7948
2016-03-14T11:42:06.058Z,7880
2016-03-14T11:43:05.920Z,7900
2016-03-14T11:44:06.109Z,7840
2016-03-14T11:45:05.347Z,7632
2016-03-14T11:46:06.115Z,7712
2016-03-14T11:47:06.150Z,7748
2016-03-14T11:48:06.152Z,7760
2016-03-14T11:49:06.170Z,7784
2016-03-14T11:50:06.189Z,7816
2016-03-14T11:51:06.192Z,7656
2016-03-14T11:52:06.256Z,7524
2016-03-14T11:53:18.371Z,7632
2016-03-14T11:54:06.230Z,7864
2016-03-14T11:55:06.257Z,7880
2016-03-14T11:56:06.267Z,7872
2016-03-14T11:57:06.243Z,7656
2016-03-14T11:58:06.252Z,7892
2016-03-14T11:59:06.266Z,7904
2016-03-14T12:00:06.279Z,7816
2016-03-14T12:01:06.356Z,7836
2016-03-14T12:02:06.308Z,7368
2016-03-14T12:03:06.323Z,6712
2016-03-14T12:04:06.338Z,7968
2016-03-14T12:05:06.339Z,8048
2016-03-14T12:06:06.355Z,7968
2016-03-14T12:07:06.373Z,7764
2016-03-14T12:08:06.390Z,7760
2016-03-14T12:09:06.391Z,7732
2016-03-14T12:10:06.425Z,7624
2016-03-14T12:11:06.428Z,7744
2016-03-14T12:12:06.461Z,7768
2016-03-14T12:13:06.464Z,7716
2016-03-14T12:14:06.481Z,7680
2016-03-14T12:15:06.499Z,7528
2016-03-14T12:16:06.517Z,7688
2016-03-14T12:17:06.535Z,6988
2016-03-14T12:18:06.584Z,6824
2016-03-14T12:19:06.555Z,7024
2016-03-14T12:20:06.605Z,6324
2016-03-14T12:21:06.576Z,6496
2016-03-14T12:22:06.626Z,6248
2016-03-14T12:23:06.628Z,7536
2016-03-14T12:24:06.647Z,7092
2016-03-14T12:25:06.649Z,7540
2016-03-14T12:26:06.668Z,7304
2016-03-14T12:27:06.701Z,6972
2016-03-14T12:28:06.704Z,6476
2016-03-14T12:29:06.722Z,6668
2016-03-14T12:30:06.710Z,7268
2016-03-14T12:31:06.744Z,7068
2016-03-14T12:32:06.778Z,7044
2016-03-14T12:33:06.640Z,6824
2016-03-14T12:34:06.798Z,6884
2016-03-14T12:35:06.801Z,6952
2016-03-14T12:36:06.834Z,6936
2016-03-14T12:37:06.854Z,6764
2016-03-14T12:38:06.872Z,6488
2016-03-14T12:39:06.875Z,6080
2016-03-14T12:40:06.893Z,5896
2016-03-14T12:41:06.912Z,8572
2016-03-14T12:42:06.945Z,8524
2016-03-14T12:43:06.948Z,8360
2016-03-14T12:44:06.966Z,7888
2016-03-14T12:45:06.969Z,7784
2016-03-14T12:46:07.002Z,8472
2016-03-14T12:47:07.005Z,8884
2016-03-14T12:48:07.039Z,8808
2016-03-14T12:49:07.041Z,8724
2016-03-14T12:50:07.060Z,8612
2016-03-14T12:51:07.094Z,8636
2016-03-14T12:52:07.082Z,8588
2016-03-14T12:53:07.115Z,8764
2016-03-14T12:54:07.134Z,8500
2016-03-14T12:55:07.152Z,8408
2016-03-14T12:56:07.170Z,8368
2016-03-14T12:57:07.205Z,8300
2016-03-14T12:58:07.207Z,8268
2016-03-14T12:59:07.226Z,8200
2016-03-14T13:00:07.243Z,8144
2016-03-14T13:01:07.246Z,8120
2016-03-14T13:02:07.264Z,8044
2016-03-14T13:03:07.282Z,8024
2016-03-14T13:04:07.301Z,7972
2016-03-14T13:05:07.319Z,7916
2016-03-14T13:06:07.322Z,7912
2016-03-14T13:07:07.372Z,7896
2016-03-14T13:08:07.374Z,7920
2016-03-14T13:09:07.378Z,7872
2016-03-14T13:10:07.083Z,7832
2016-03-14T13:11:07.398Z,7872
2016-03-14T13:12:07.464Z,7900
2016-03-14T13:13:07.450Z,7892
2016-03-14T13:14:07.469Z,7860
2016-03-14T13:15:07.471Z,7784
2016-03-14T13:16:07.505Z,7792
2016-03-14T13:17:07.508Z,7804
2016-03-14T13:18:07.370Z,7768
2016-03-14T13:19:07.591Z,7732
2016-03-14T13:20:07.563Z,7688
2016-03-14T13:21:07.612Z,7692
2016-03-14T13:22:07.583Z,7576
2016-03-14T13:23:07.618Z,7624
2016-03-14T13:24:07.635Z,7600
2016-03-14T13:25:07.639Z,7572
2016-03-14T13:26:07.657Z,7556
2016-03-14T13:27:07.738Z,7496
2016-03-14T13:28:07.709Z,7484
2016-03-14T13:29:07.744Z,7444
2016-03-14T13:30:07.730Z,7420
2016-03-14T13:31:07.732Z,7388
2016-03-14T13:32:07.751Z,7352
2016-03-14T13:33:07.785Z,7300
2016-03-14T13:34:07.804Z,7264
2016-03-14T13:35:07.823Z,7248
2016-03-14T13:36:07.809Z,7236
2016-03-14T13:37:07.828Z,7176
2016-03-14T13:38:07.861Z,7136
2016-03-14T13:39:07.879Z,7124
2016-03-14T13:40:07.898Z,7072
2016-03-14T13:41:07.150Z,7040
2016-03-14T13:42:07.951Z,7000
2016-03-14T13:43:07.937Z,7012
2016-03-14T13:44:07.956Z,6996
2016-03-14T13:45:08.005Z,7000
2016-03-14T13:46:08.008Z,6988
2016-03-14T13:47:08.011Z,6972
2016-03-14T13:48:08.013Z,6944
2016-03-14T13:49:08.047Z,6904
2016-03-14T13:50:08.066Z,6856
2016-03-14T13:51:08.100Z,6852
2016-03-14T13:52:08.102Z,6840
2016-03-14T13:53:08.105Z,6832